sensor_id;sensor_type;location;lat;lon;timestamp;P1;P2;P0
45871;PMS5003;32333;55.844;-3.210;2023-08-31T00:01:49;0;0;
45871;PMS5003;32333;55.844;-3.210;2023-08-31T00:04:17;0;0;
45871;PMS5003;32333;55.844;-3.210;2023-08-31T00:06:44;0;0;
45871;PMS5003;32333;55.844;-3.210;2023-08-31T00:09:11;0;0;
45871;PMS5003;32333;55.844;-3.210;2023-08-31T00:11:39;0;0;
45871;PMS5003;32333;55.844;-3.210;2023-08-31T00:14:35;0;0;
45871;PMS5003;32333;55.844;-3.210;2023-08-31T00:17:02;0;0;
45871;PMS5003;32333;55.844;-3.210;2023-08-31T00:19:30;0;0;
45871;PMS5003;32333;55.844;-3.210;2023-08-31T00:21:58;0;0;
45871;PMS5003;32333;55.844;-3.210;2023-08-31T00:24:33;0;0;
45871;PMS5003;32333;55.844;-3.210;2023-08-31T00:27:00;0;0;
45871;PMS5003;32333;55.844;-3.210;2023-08-31T00:29:28;0;0;
45871;PMS5003;32333;55.844;-3.210;2023-08-31T00:31:57;0;0;
45871;PMS5003;32333;55.844;-3.210;2023-08-31T00:34:27;0;0;
45871;PMS5003;32333;55.844;-3.210;2023-08-31T00:36:56;0;0;
45871;PMS5003;32333;55.844;-3.210;2023-08-31T00:39:24;0;0;
45871;PMS5003;32333;55.844;-3.210;2023-08-31T00:41:52;0;0;
45871;PMS5003;32333;55.844;-3.210;2023-08-31T00:44:35;0;0;
45871;PMS5003;32333;55.844;-3.210;2023-08-31T00:47:03;0;0;
45871;PMS5003;32333;55.844;-3.210;2023-08-31T00:49:30;0;0;
45871;PMS5003;32333;55.844;-3.210;2023-08-31T00:51:58;0;0;
45871;PMS5003;32333;55.844;-3.210;2023-08-31T00:54:25;0;0;
45871;PMS5003;32333;55.844;-3.210;2023-08-31T00:56:53;0;0;
45871;PMS5003;32333;55.844;-3.210;2023-08-31T00:59:22;0;0;
45871;PMS5003;32333;55.844;-3.210;2023-08-31T01:01:51;0;0;
45871;PMS5003;32333;55.844;-3.210;2023-08-31T01:04:28;0;0;
45871;PMS5003;32333;55.844;-3.210;2023-08-31T01:07:09;0;0;
45871;PMS5003;32333;55.844;-3.210;2023-08-31T01:09:47;0;0;
45871;PMS5003;32333;55.844;-3.210;2023-08-31T01:14:38;0;0;
45871;PMS5003;32333;55.844;-3.210;2023-08-31T01:17:11;0;0;
45871;PMS5003;32333;55.844;-3.210;2023-08-31T01:19:44;0;0;
45871;PMS5003;32333;55.844;-3.210;2023-08-31T01:22:18;0;0;
45871;PMS5003;32333;55.844;-3.210;2023-08-31T01:24:56;0;0;
45871;PMS5003;32333;55.844;-3.210;2023-08-31T01:27:25;0;0;
45871;PMS5003;32333;55.844;-3.210;2023-08-31T01:29:54;0;0;
45871;PMS5003;32333;55.844;-3.210;2023-08-31T01:32:22;0;0;
45871;PMS5003;32333;55.844;-3.210;2023-08-31T01:34:49;0;0;
45871;PMS5003;32333;55.844;-3.210;2023-08-31T01:37:20;0;0;
45871;PMS5003;32333;55.844;-3.210;2023-08-31T01:39:55;0;0;
45871;PMS5003;32333;55.844;-3.210;2023-08-31T01:44:35;0;0;
45871;PMS5003;32333;55.844;-3.210;2023-08-31T01:47:04;0;0;
45871;PMS5003;32333;55.844;-3.210;2023-08-31T01:49:37;0;0;
45871;PMS5003;32333;55.844;-3.210;2023-08-31T01:52:06;0;0;
45871;PMS5003;32333;55.844;-3.210;2023-08-31T01:54:34;0;0;
45871;PMS5003;32333;55.844;-3.210;2023-08-31T01:57:01;0;0;
45871;PMS5003;32333;55.844;-3.210;2023-08-31T01:59:29;0;0;
45871;PMS5003;32333;55.844;-3.210;2023-08-31T02:01:57;0;0;
45871;PMS5003;32333;55.844;-3.210;2023-08-31T02:04:24;0;0;
45871;PMS5003;32333;55.844;-3.210;2023-08-31T02:06:52;0;0;
45871;PMS5003;32333;55.844;-3.210;2023-08-31T02:09:19;0;0;
45871;PMS5003;32333;55.844;-3.210;2023-08-31T02:11:47;0;0;
45871;PMS5003;32333;55.844;-3.210;2023-08-31T02:14:36;0;0;
45871;PMS5003;32333;55.844;-3.210;2023-08-31T02:17:03;0;0;
45871;PMS5003;32333;55.844;-3.210;2023-08-31T02:19:31;0;0;
45871;PMS5003;32333;55.844;-3.210;2023-08-31T02:21:59;0;0;
45871;PMS5003;32333;55.844;-3.210;2023-08-31T02:24:26;0;0;
45871;PMS5003;32333;55.844;-3.210;2023-08-31T02:26:54;0;0;
45871;PMS5003;32333;55.844;-3.210;2023-08-31T02:29:23;0;0;
45871;PMS5003;32333;55.844;-3.210;2023-08-31T02:31:50;0;0;
45871;PMS5003;32333;55.844;-3.210;2023-08-31T02:34:17;0;0;
45871;PMS5003;32333;55.844;-3.210;2023-08-31T02:36:45;0;0;
45871;PMS5003;32333;55.844;-3.210;2023-08-31T02:39:12;0;0;
45871;PMS5003;32333;55.844;-3.210;2023-08-31T02:41:40;0;0;
45871;PMS5003;32333;55.844;-3.210;2023-08-31T02:44:35;0;0;
45871;PMS5003;32333;55.844;-3.210;2023-08-31T02:47:03;0;0;
45871;PMS5003;32333;55.844;-3.210;2023-08-31T02:49:30;0;0;
45871;PMS5003;32333;55.844;-3.210;2023-08-31T02:51:58;0;0;
45871;PMS5003;32333;55.844;-3.210;2023-08-31T02:54:26;0;0;
45871;PMS5003;32333;55.844;-3.210;2023-08-31T02:56:53;0;0;
45871;PMS5003;32333;55.844;-3.210;2023-08-31T02:59:21;0;0;
45871;PMS5003;32333;55.844;-3.210;2023-08-31T03:01:48;1;1;
45871;PMS5003;32333;55.844;-3.210;2023-08-31T03:04:16;6;6;
45871;PMS5003;32333;55.844;-3.210;2023-08-31T03:06:43;15;15;
45871;PMS5003;32333;55.844;-3.210;2023-08-31T03:09:10;13;13;
45871;PMS5003;32333;55.844;-3.210;2023-08-31T03:11:38;36;36;
45871;PMS5003;32333;55.844;-3.210;2023-08-31T03:14:35;15;15;
45871;PMS5003;32333;55.844;-3.210;2023-08-31T03:17:03;27;27;
45871;PMS5003;32333;55.844;-3.210;2023-08-31T03:19:30;22;22;
45871;PMS5003;32333;55.844;-3.210;2023-08-31T03:21:57;12;12;
45871;PMS5003;32333;55.844;-3.210;2023-08-31T03:24:25;25;25;
45871;PMS5003;32333;55.844;-3.210;2023-08-31T03:26:53;22;22;
45871;PMS5003;32333;55.844;-3.210;2023-08-31T03:29:20;13;13;
45871;PMS5003;32333;55.844;-3.210;2023-08-31T03:31:48;15;15;
45871;PMS5003;32333;55.844;-3.210;2023-08-31T03:34:15;19;19;
45871;PMS5003;32333;55.844;-3.210;2023-08-31T03:36:43;33;33;
45871;PMS5003;32333;55.844;-3.210;2023-08-31T03:39:10;21;21;
45871;PMS5003;32333;55.844;-3.210;2023-08-31T03:41:37;25;25;
45871;PMS5003;32333;55.844;-3.210;2023-08-31T03:44:35;33;33;
45871;PMS5003;32333;55.844;-3.210;2023-08-31T03:47:03;51;51;
45871;PMS5003;32333;55.844;-3.210;2023-08-31T03:49:31;28;28;
45871;PMS5003;32333;55.844;-3.210;2023-08-31T03:51:59;24;24;
45871;PMS5003;32333;55.844;-3.210;2023-08-31T03:54:26;25;25;
45871;PMS5003;32333;55.844;-3.210;2023-08-31T03:56:54;52;52;
45871;PMS5003;32333;55.844;-3.210;2023-08-31T03:59:21;16;16;
45871;PMS5003;32333;55.844;-3.210;2023-08-31T04:01:49;21;21;
45871;PMS5003;32333;55.844;-3.210;2023-08-31T04:04:16;15;15;
45871;PMS5003;32333;55.844;-3.210;2023-08-31T04:06:43;22;22;
45871;PMS5003;32333;55.844;-3.210;2023-08-31T04:09:10;28;28;
45871;PMS5003;32333;55.844;-3.210;2023-08-31T04:11:37;15;15;
45871;PMS5003;32333;55.844;-3.210;2023-08-31T04:14:35;64;64;
45871;PMS5003;32333;55.844;-3.210;2023-08-31T04:17:03;70;70;
45871;PMS5003;32333;55.844;-3.210;2023-08-31T04:19:31;37;37;
45871;PMS5003;32333;55.844;-3.210;2023-08-31T04:21:58;48;48;
45871;PMS5003;32333;55.844;-3.210;2023-08-31T04:24:27;30;30;
45871;PMS5003;32333;55.844;-3.210;2023-08-31T04:26:56;25;25;
45871;PMS5003;32333;55.844;-3.210;2023-08-31T04:29:23;24;24;
45871;PMS5003;32333;55.844;-3.210;2023-08-31T04:31:52;30;30;
45871;PMS5003;32333;55.844;-3.210;2023-08-31T04:34:20;16;16;
45871;PMS5003;32333;55.844;-3.210;2023-08-31T04:36:49;19;19;
45871;PMS5003;32333;55.844;-3.210;2023-08-31T04:39:17;21;21;
45871;PMS5003;32333;55.844;-3.210;2023-08-31T04:41:46;30;30;
45871;PMS5003;32333;55.844;-3.210;2023-08-31T04:44:34;27;27;
45871;PMS5003;32333;55.844;-3.210;2023-08-31T04:47:02;28;28;
45871;PMS5003;32333;55.844;-3.210;2023-08-31T04:49:29;16;16;
45871;PMS5003;32333;55.844;-3.210;2023-08-31T04:51:57;52;52;
45871;PMS5003;32333;55.844;-3.210;2023-08-31T04:54:26;36;36;
45871;PMS5003;32333;55.844;-3.210;2023-08-31T04:56:54;33;33;
45871;PMS5003;32333;55.844;-3.210;2023-08-31T04:59:21;52;52;
45871;PMS5003;32333;55.844;-3.210;2023-08-31T05:01:49;18;18;
45871;PMS5003;32333;55.844;-3.210;2023-08-31T05:04:16;43;43;
45871;PMS5003;32333;55.844;-3.210;2023-08-31T05:06:44;15;15;
45871;PMS5003;32333;55.844;-3.210;2023-08-31T05:09:13;48;48;
45871;PMS5003;32333;55.844;-3.210;2023-08-31T05:11:41;18;18;
45871;PMS5003;32333;55.844;-3.210;2023-08-31T05:14:34;25;25;
45871;PMS5003;32333;55.844;-3.210;2023-08-31T05:17:01;16;16;
45871;PMS5003;32333;55.844;-3.210;2023-08-31T05:19:29;27;27;
45871;PMS5003;32333;55.844;-3.210;2023-08-31T05:21:57;22;22;
45871;PMS5003;32333;55.844;-3.210;2023-08-31T05:24:24;30;30;
45871;PMS5003;32333;55.844;-3.210;2023-08-31T05:26:52;45;45;
45871;PMS5003;32333;55.844;-3.210;2023-08-31T05:29:20;37;37;
45871;PMS5003;32333;55.844;-3.210;2023-08-31T05:31:47;30;30;
45871;PMS5003;32333;55.844;-3.210;2023-08-31T05:34:16;27;27;
45871;PMS5003;32333;55.844;-3.210;2023-08-31T05:36:46;27;27;
45871;PMS5003;32333;55.844;-3.210;2023-08-31T05:39:14;22;22;
45871;PMS5003;32333;55.844;-3.210;2023-08-31T05:41:41;25;25;
45871;PMS5003;32333;55.844;-3.210;2023-08-31T05:44:33;21;21;
45871;PMS5003;32333;55.844;-3.210;2023-08-31T05:47:01;18;18;
45871;PMS5003;32333;55.844;-3.210;2023-08-31T05:49:29;16;16;
45871;PMS5003;32333;55.844;-3.210;2023-08-31T05:51:56;24;24;
45871;PMS5003;32333;55.844;-3.210;2023-08-31T05:54:25;22;22;
45871;PMS5003;32333;55.844;-3.210;2023-08-31T05:56:52;31;31;
45871;PMS5003;32333;55.844;-3.210;2023-08-31T05:59:19;16;16;
45871;PMS5003;32333;55.844;-3.210;2023-08-31T06:01:48;22;22;
45871;PMS5003;32333;55.844;-3.210;2023-08-31T06:04:16;73;73;
45871;PMS5003;32333;55.844;-3.210;2023-08-31T06:06:43;42;42;
45871;PMS5003;32333;55.844;-3.210;2023-08-31T06:09:11;18;18;
45871;PMS5003;32333;55.844;-3.210;2023-08-31T06:11:39;46;46;
45871;PMS5003;32333;55.844;-3.210;2023-08-31T06:14:35;13;13;
45871;PMS5003;32333;55.844;-3.210;2023-08-31T06:17:02;13;13;
45871;PMS5003;32333;55.844;-3.210;2023-08-31T06:19:29;13;13;
45871;PMS5003;32333;55.844;-3.210;2023-08-31T06:21:58;1;1;
45871;PMS5003;32333;55.844;-3.210;2023-08-31T06:24:25;0;0;
45871;PMS5003;32333;55.844;-3.210;2023-08-31T06:26:53;0;0;
45871;PMS5003;32333;55.844;-3.210;2023-08-31T06:29:20;0;0;
45871;PMS5003;32333;55.844;-3.210;2023-08-31T06:31:47;0;0;
45871;PMS5003;32333;55.844;-3.210;2023-08-31T06:34:15;0;0;
45871;PMS5003;32333;55.844;-3.210;2023-08-31T06:36:42;0;0;
45871;PMS5003;32333;55.844;-3.210;2023-08-31T06:39:11;0;0;
45871;PMS5003;32333;55.844;-3.210;2023-08-31T06:41:38;0;0;
45871;PMS5003;32333;55.844;-3.210;2023-08-31T06:44:35;0;0;
45871;PMS5003;32333;55.844;-3.210;2023-08-31T06:47:02;0;0;
45871;PMS5003;32333;55.844;-3.210;2023-08-31T06:49:29;0;0;
45871;PMS5003;32333;55.844;-3.210;2023-08-31T06:51:58;0;0;
45871;PMS5003;32333;55.844;-3.210;2023-08-31T06:54:25;0;0;
45871;PMS5003;32333;55.844;-3.210;2023-08-31T06:56:53;0;0;
45871;PMS5003;32333;55.844;-3.210;2023-08-31T06:59:20;0;0;
45871;PMS5003;32333;55.844;-3.210;2023-08-31T07:01:48;0;0;
45871;PMS5003;32333;55.844;-3.210;2023-08-31T07:04:15;0;0;
45871;PMS5003;32333;55.844;-3.210;2023-08-31T07:06:42;0;0;
45871;PMS5003;32333;55.844;-3.210;2023-08-31T07:09:12;0;0;
45871;PMS5003;32333;55.844;-3.210;2023-08-31T07:11:40;0;0;
45871;PMS5003;32333;55.844;-3.210;2023-08-31T07:14:34;0;0;
45871;PMS5003;32333;55.844;-3.210;2023-08-31T07:17:03;0;0;
45871;PMS5003;32333;55.844;-3.210;2023-08-31T07:20:14;0;0;
45871;PMS5003;32333;55.844;-3.210;2023-08-31T07:22:42;0;0;
45871;PMS5003;32333;55.844;-3.210;2023-08-31T07:25:12;0;0;
45871;PMS5003;32333;55.844;-3.210;2023-08-31T07:27:42;0;0;
45871;PMS5003;32333;55.844;-3.210;2023-08-31T07:30:11;0;0;
45871;PMS5003;32333;55.844;-3.210;2023-08-31T07:32:38;0;0;
45871;PMS5003;32333;55.844;-3.210;2023-08-31T07:35:06;0;0;
45871;PMS5003;32333;55.844;-3.210;2023-08-31T07:37:34;0;0;
45871;PMS5003;32333;55.844;-3.210;2023-08-31T07:40:02;0;0;
45871;PMS5003;32333;55.844;-3.210;2023-08-31T07:44:35;0;0;
45871;PMS5003;32333;55.844;-3.210;2023-08-31T07:47:18;0;0;
45871;PMS5003;32333;55.844;-3.210;2023-08-31T07:49:46;0;0;
45871;PMS5003;32333;55.844;-3.210;2023-08-31T07:52:22;0;0;
45871;PMS5003;32333;55.844;-3.210;2023-08-31T07:54:50;0;0;
45871;PMS5003;32333;55.844;-3.210;2023-08-31T07:57:18;0;0;
45871;PMS5003;32333;55.844;-3.210;2023-08-31T07:59:46;0;0;
45871;PMS5003;32333;55.844;-3.210;2023-08-31T08:02:13;0;0;
45871;PMS5003;32333;55.844;-3.210;2023-08-31T08:04:40;0;0;
45871;PMS5003;32333;55.844;-3.210;2023-08-31T08:07:08;0;0;
45871;PMS5003;32333;55.844;-3.210;2023-08-31T08:09:36;1;1;
45871;PMS5003;32333;55.844;-3.210;2023-08-31T08:14:35;0;0;
45871;PMS5003;32333;55.844;-3.210;2023-08-31T08:17:03;0;0;
45871;PMS5003;32333;55.844;-3.210;2023-08-31T08:19:33;0;0;
45871;PMS5003;32333;55.844;-3.210;2023-08-31T08:22:01;0;0;
45871;PMS5003;32333;55.844;-3.210;2023-08-31T08:24:29;0;0;
45871;PMS5003;32333;55.844;-3.210;2023-08-31T08:26:57;0;0;
45871;PMS5003;32333;55.844;-3.210;2023-08-31T08:29:25;0;0;
45871;PMS5003;32333;55.844;-3.210;2023-08-31T08:31:52;0;0;
45871;PMS5003;32333;55.844;-3.210;2023-08-31T08:34:20;0;0;
45871;PMS5003;32333;55.844;-3.210;2023-08-31T08:36:47;0;0;
45871;PMS5003;32333;55.844;-3.210;2023-08-31T08:39:16;0;0;
45871;PMS5003;32333;55.844;-3.210;2023-08-31T08:41:44;0;0;
45871;PMS5003;32333;55.844;-3.210;2023-08-31T08:44:35;0;0;
45871;PMS5003;32333;55.844;-3.210;2023-08-31T08:47:03;0;0;
45871;PMS5003;32333;55.844;-3.210;2023-08-31T08:49:32;0;0;
45871;PMS5003;32333;55.844;-3.210;2023-08-31T08:52:02;0;0;
45871;PMS5003;32333;55.844;-3.210;2023-08-31T08:54:32;0;0;
45871;PMS5003;32333;55.844;-3.210;2023-08-31T08:57:00;0;0;
45871;PMS5003;32333;55.844;-3.210;2023-08-31T08:59:29;0;0;
45871;PMS5003;32333;55.844;-3.210;2023-08-31T09:01:56;1;1;
45871;PMS5003;32333;55.844;-3.210;2023-08-31T09:04:24;12;12;
45871;PMS5003;32333;55.844;-3.210;2023-08-31T09:06:51;0;0;
45871;PMS5003;32333;55.844;-3.210;2023-08-31T09:09:19;0;0;
45871;PMS5003;32333;55.844;-3.210;2023-08-31T09:11:47;40;40;
45871;PMS5003;32333;55.844;-3.210;2023-08-31T09:14:35;13;13;
45871;PMS5003;32333;55.844;-3.210;2023-08-31T09:17:03;4;4;
45871;PMS5003;32333;55.844;-3.210;2023-08-31T09:19:30;0;0;
45871;PMS5003;32333;55.844;-3.210;2023-08-31T09:21:58;0;0;
45871;PMS5003;32333;55.844;-3.210;2023-08-31T09:24:26;0;0;
45871;PMS5003;32333;55.844;-3.210;2023-08-31T09:26:55;0;0;
45871;PMS5003;32333;55.844;-3.210;2023-08-31T09:29:23;0;0;
45871;PMS5003;32333;55.844;-3.210;2023-08-31T09:31:51;0;0;
45871;PMS5003;32333;55.844;-3.210;2023-08-31T09:34:20;0;0;
45871;PMS5003;32333;55.844;-3.210;2023-08-31T09:36:48;0;0;
45871;PMS5003;32333;55.844;-3.210;2023-08-31T09:39:16;0;0;
45871;PMS5003;32333;55.844;-3.210;2023-08-31T09:41:59;0;0;
45871;PMS5003;32333;55.844;-3.210;2023-08-31T09:44:38;0;0;
45871;PMS5003;32333;55.844;-3.210;2023-08-31T09:47:09;0;0;
45871;PMS5003;32333;55.844;-3.210;2023-08-31T09:49:39;0;0;
45871;PMS5003;32333;55.844;-3.210;2023-08-31T09:52:09;0;0;
45871;PMS5003;32333;55.844;-3.210;2023-08-31T09:54:38;0;0;
45871;PMS5003;32333;55.844;-3.210;2023-08-31T09:57:09;0;0;
45871;PMS5003;32333;55.844;-3.210;2023-08-31T09:59:40;0;0;
45871;PMS5003;32333;55.844;-3.210;2023-08-31T10:02:08;0;0;
45871;PMS5003;32333;55.844;-3.210;2023-08-31T10:04:39;0;0;
45871;PMS5003;32333;55.844;-3.210;2023-08-31T10:07:09;0;0;
45871;PMS5003;32333;55.844;-3.210;2023-08-31T10:09:39;0;0;
45871;PMS5003;32333;55.844;-3.210;2023-08-31T10:14:36;0;0;
45871;PMS5003;32333;55.844;-3.210;2023-08-31T10:17:05;0;0;
45871;PMS5003;32333;55.844;-3.210;2023-08-31T10:19:33;0;0;
45871;PMS5003;32333;55.844;-3.210;2023-08-31T10:22:01;0;0;
45871;PMS5003;32333;55.844;-3.210;2023-08-31T10:25:05;0;0;
45871;PMS5003;32333;55.844;-3.210;2023-08-31T10:27:38;0;0;
45871;PMS5003;32333;55.844;-3.210;2023-08-31T10:30:15;0;0;
45871;PMS5003;32333;55.844;-3.210;2023-08-31T10:33:25;0;0;
45871;PMS5003;32333;55.844;-3.210;2023-08-31T10:35:54;0;0;
45871;PMS5003;32333;55.844;-3.210;2023-08-31T10:38:24;0;0;
45871;PMS5003;32333;55.844;-3.210;2023-08-31T10:41:03;0;0;
45871;PMS5003;32333;55.844;-3.210;2023-08-31T10:44:34;0;0;
45871;PMS5003;32333;55.844;-3.210;2023-08-31T10:47:03;0;0;
45871;PMS5003;32333;55.844;-3.210;2023-08-31T10:49:33;0;0;
45871;PMS5003;32333;55.844;-3.210;2023-08-31T10:52:14;0;0;
45871;PMS5003;32333;55.844;-3.210;2023-08-31T10:54:46;0;0;
45871;PMS5003;32333;55.844;-3.210;2023-08-31T10:57:14;0;0;
45871;PMS5003;32333;55.844;-3.210;2023-08-31T10:59:44;0;0;
45871;PMS5003;32333;55.844;-3.210;2023-08-31T11:02:30;0;0;
45871;PMS5003;32333;55.844;-3.210;2023-08-31T11:05:01;0;0;
45871;PMS5003;32333;55.844;-3.210;2023-08-31T11:07:33;0;0;
45871;PMS5003;32333;55.844;-3.210;2023-08-31T11:10:07;0;0;
45871;PMS5003;32333;55.844;-3.210;2023-08-31T11:14:34;0;0;
45871;PMS5003;32333;55.844;-3.210;2023-08-31T11:17:02;0;0;
45871;PMS5003;32333;55.844;-3.210;2023-08-31T11:20:05;0;0;
45871;PMS5003;32333;55.844;-3.210;2023-08-31T11:22:38;0;0;
45871;PMS5003;32333;55.844;-3.210;2023-08-31T11:25:09;0;0;
45871;PMS5003;32333;55.844;-3.210;2023-08-31T11:27:38;0;0;
45871;PMS5003;32333;55.844;-3.210;2023-08-31T11:30:13;0;0;
45871;PMS5003;32333;55.844;-3.210;2023-08-31T11:32:44;0;0;
45871;PMS5003;32333;55.844;-3.210;2023-08-31T11:35:15;0;0;
45871;PMS5003;32333;55.844;-3.210;2023-08-31T11:37:43;0;0;
45871;PMS5003;32333;55.844;-3.210;2023-08-31T11:40:11;0;0;
45871;PMS5003;32333;55.844;-3.210;2023-08-31T11:44:34;0;0;
45871;PMS5003;32333;55.844;-3.210;2023-08-31T11:47:02;0;0;
45871;PMS5003;32333;55.844;-3.210;2023-08-31T11:49:32;0;0;
45871;PMS5003;32333;55.844;-3.210;2023-08-31T11:52:02;0;0;
45871;PMS5003;32333;55.844;-3.210;2023-08-31T11:54:32;0;0;
45871;PMS5003;32333;55.844;-3.210;2023-08-31T11:56:59;0;0;
45871;PMS5003;32333;55.844;-3.210;2023-08-31T11:59:37;0;0;
45871;PMS5003;32333;55.844;-3.210;2023-08-31T12:02:06;0;0;
45871;PMS5003;32333;55.844;-3.210;2023-08-31T12:04:41;0;0;
45871;PMS5003;32333;55.844;-3.210;2023-08-31T12:07:09;0;0;
45871;PMS5003;32333;55.844;-3.210;2023-08-31T12:09:37;0;0;
45871;PMS5003;32333;55.844;-3.210;2023-08-31T12:14:36;0;0;
45871;PMS5003;32333;55.844;-3.210;2023-08-31T12:17:05;0;0;
45871;PMS5003;32333;55.844;-3.210;2023-08-31T12:19:35;0;0;
45871;PMS5003;32333;55.844;-3.210;2023-08-31T12:22:03;0;0;
45871;PMS5003;32333;55.844;-3.210;2023-08-31T12:24:36;0;0;
45871;PMS5003;32333;55.844;-3.210;2023-08-31T12:27:05;0;0;
45871;PMS5003;32333;55.844;-3.210;2023-08-31T12:29:33;0;0;
45871;PMS5003;32333;55.844;-3.210;2023-08-31T12:32:02;0;0;
45871;PMS5003;32333;55.844;-3.210;2023-08-31T12:34:30;0;0;
45871;PMS5003;32333;55.844;-3.210;2023-08-31T12:36:58;0;0;
45871;PMS5003;32333;55.844;-3.210;2023-08-31T12:39:27;0;0;
45871;PMS5003;32333;55.844;-3.210;2023-08-31T12:41:55;0;0;
45871;PMS5003;32333;55.844;-3.210;2023-08-31T12:44:34;0;0;
45871;PMS5003;32333;55.844;-3.210;2023-08-31T12:47:02;0;0;
45871;PMS5003;32333;55.844;-3.210;2023-08-31T12:49:30;0;0;
45871;PMS5003;32333;55.844;-3.210;2023-08-31T12:51:58;0;0;
45871;PMS5003;32333;55.844;-3.210;2023-08-31T12:54:26;0;0;
45871;PMS5003;32333;55.844;-3.210;2023-08-31T12:56:54;0;0;
45871;PMS5003;32333;55.844;-3.210;2023-08-31T12:59:21;0;0;
45871;PMS5003;32333;55.844;-3.210;2023-08-31T13:01:48;0;0;
45871;PMS5003;32333;55.844;-3.210;2023-08-31T13:04:16;0;0;
45871;PMS5003;32333;55.844;-3.210;2023-08-31T13:06:44;0;0;
45871;PMS5003;32333;55.844;-3.210;2023-08-31T13:09:12;0;0;
45871;PMS5003;32333;55.844;-3.210;2023-08-31T13:11:40;0;0;
45871;PMS5003;32333;55.844;-3.210;2023-08-31T13:14:34;0;0;
45871;PMS5003;32333;55.844;-3.210;2023-08-31T13:17:02;0;0;
45871;PMS5003;32333;55.844;-3.210;2023-08-31T13:19:30;0;0;
45871;PMS5003;32333;55.844;-3.210;2023-08-31T13:21:57;0;0;
45871;PMS5003;32333;55.844;-3.210;2023-08-31T13:24:25;0;0;
45871;PMS5003;32333;55.844;-3.210;2023-08-31T13:26:52;0;0;
45871;PMS5003;32333;55.844;-3.210;2023-08-31T13:29:20;0;0;
45871;PMS5003;32333;55.844;-3.210;2023-08-31T13:31:48;0;0;
45871;PMS5003;32333;55.844;-3.210;2023-08-31T13:34:15;0;0;
45871;PMS5003;32333;55.844;-3.210;2023-08-31T13:36:44;0;0;
45871;PMS5003;32333;55.844;-3.210;2023-08-31T13:39:12;0;0;
45871;PMS5003;32333;55.844;-3.210;2023-08-31T13:41:39;0;0;
45871;PMS5003;32333;55.844;-3.210;2023-08-31T13:44:35;0;0;
45871;PMS5003;32333;55.844;-3.210;2023-08-31T13:47:03;0;0;
45871;PMS5003;32333;55.844;-3.210;2023-08-31T13:49:31;0;0;
45871;PMS5003;32333;55.844;-3.210;2023-08-31T13:51:59;0;0;
45871;PMS5003;32333;55.844;-3.210;2023-08-31T13:54:28;0;0;
45871;PMS5003;32333;55.844;-3.210;2023-08-31T13:56:57;0;0;
45871;PMS5003;32333;55.844;-3.210;2023-08-31T13:59:24;0;0;
45871;PMS5003;32333;55.844;-3.210;2023-08-31T14:01:52;0;0;
45871;PMS5003;32333;55.844;-3.210;2023-08-31T14:04:20;0;0;
45871;PMS5003;32333;55.844;-3.210;2023-08-31T14:07:25;0;0;
45871;PMS5003;32333;55.844;-3.210;2023-08-31T14:14:35;0;0;
45871;PMS5003;32333;55.844;-3.210;2023-08-31T14:17:03;0;0;
45871;PMS5003;32333;55.844;-3.210;2023-08-31T14:21:18;0;0;
45871;PMS5003;32333;55.844;-3.210;2023-08-31T14:23:48;0;0;
45871;PMS5003;32333;55.844;-3.210;2023-08-31T14:26:17;0;0;
45871;PMS5003;32333;55.844;-3.210;2023-08-31T14:28:45;0;0;
45871;PMS5003;32333;55.844;-3.210;2023-08-31T14:31:13;0;0;
45871;PMS5003;32333;55.844;-3.210;2023-08-31T14:36:42;0;0;
45871;PMS5003;32333;55.844;-3.210;2023-08-31T14:39:09;0;0;
45871;PMS5003;32333;55.844;-3.210;2023-08-31T14:41:39;0;0;
45871;PMS5003;32333;55.844;-3.210;2023-08-31T14:44:35;0;0;
45871;PMS5003;32333;55.844;-3.210;2023-08-31T14:47:02;0;0;
45871;PMS5003;32333;55.844;-3.210;2023-08-31T14:49:30;0;0;
45871;PMS5003;32333;55.844;-3.210;2023-08-31T14:51:57;0;0;
45871;PMS5003;32333;55.844;-3.210;2023-08-31T14:54:25;0;0;
45871;PMS5003;32333;55.844;-3.210;2023-08-31T14:56:52;0;0;
45871;PMS5003;32333;55.844;-3.210;2023-08-31T14:59:21;0;0;
45871;PMS5003;32333;55.844;-3.210;2023-08-31T15:01:48;0;0;
45871;PMS5003;32333;55.844;-3.210;2023-08-31T15:04:15;0;0;
45871;PMS5003;32333;55.844;-3.210;2023-08-31T15:06:44;0;0;
45871;PMS5003;32333;55.844;-3.210;2023-08-31T15:09:12;0;0;
45871;PMS5003;32333;55.844;-3.210;2023-08-31T15:11:39;0;0;
45871;PMS5003;32333;55.844;-3.210;2023-08-31T15:14:34;0;0;
45871;PMS5003;32333;55.844;-3.210;2023-08-31T15:17:02;0;0;
45871;PMS5003;32333;55.844;-3.210;2023-08-31T15:19:30;0;0;
45871;PMS5003;32333;55.844;-3.210;2023-08-31T15:21:58;0;0;
45871;PMS5003;32333;55.844;-3.210;2023-08-31T15:24:25;0;0;
45871;PMS5003;32333;55.844;-3.210;2023-08-31T15:26:53;0;0;
45871;PMS5003;32333;55.844;-3.210;2023-08-31T15:29:21;0;0;
45871;PMS5003;32333;55.844;-3.210;2023-08-31T15:31:49;0;0;
45871;PMS5003;32333;55.844;-3.210;2023-08-31T15:34:17;0;0;
45871;PMS5003;32333;55.844;-3.210;2023-08-31T15:36:45;0;0;
45871;PMS5003;32333;55.844;-3.210;2023-08-31T15:39:12;0;0;
45871;PMS5003;32333;55.844;-3.210;2023-08-31T15:41:39;0;0;
45871;PMS5003;32333;55.844;-3.210;2023-08-31T15:44:35;0;0;
45871;PMS5003;32333;55.844;-3.210;2023-08-31T15:47:09;0;0;
45871;PMS5003;32333;55.844;-3.210;2023-08-31T15:49:36;1;1;
45871;PMS5003;32333;55.844;-3.210;2023-08-31T15:52:04;0;0;
45871;PMS5003;32333;55.844;-3.210;2023-08-31T15:54:32;0;0;
45871;PMS5003;32333;55.844;-3.210;2023-08-31T15:57:00;0;0;
45871;PMS5003;32333;55.844;-3.210;2023-08-31T15:59:28;0;0;
45871;PMS5003;32333;55.844;-3.210;2023-08-31T16:01:55;0;0;
45871;PMS5003;32333;55.844;-3.210;2023-08-31T16:04:23;0;0;
45871;PMS5003;32333;55.844;-3.210;2023-08-31T16:06:51;0;0;
45871;PMS5003;32333;55.844;-3.210;2023-08-31T16:09:18;0;0;
45871;PMS5003;32333;55.844;-3.210;2023-08-31T16:11:46;0;0;
45871;PMS5003;32333;55.844;-3.210;2023-08-31T16:14:34;0;0;
45871;PMS5003;32333;55.844;-3.210;2023-08-31T16:17:02;0;0;
45871;PMS5003;32333;55.844;-3.210;2023-08-31T16:19:31;0;0;
45871;PMS5003;32333;55.844;-3.210;2023-08-31T16:21:59;0;0;
45871;PMS5003;32333;55.844;-3.210;2023-08-31T16:24:28;0;0;
45871;PMS5003;32333;55.844;-3.210;2023-08-31T16:26:56;0;0;
45871;PMS5003;32333;55.844;-3.210;2023-08-31T16:29:23;0;0;
45871;PMS5003;32333;55.844;-3.210;2023-08-31T16:31:51;0;0;
45871;PMS5003;32333;55.844;-3.210;2023-08-31T16:34:19;0;0;
45871;PMS5003;32333;55.844;-3.210;2023-08-31T16:36:47;0;0;
45871;PMS5003;32333;55.844;-3.210;2023-08-31T16:39:14;0;0;
45871;PMS5003;32333;55.844;-3.210;2023-08-31T16:41:43;0;0;
45871;PMS5003;32333;55.844;-3.210;2023-08-31T16:44:35;0;0;
45871;PMS5003;32333;55.844;-3.210;2023-08-31T16:47:04;0;0;
45871;PMS5003;32333;55.844;-3.210;2023-08-31T16:49:33;0;0;
45871;PMS5003;32333;55.844;-3.210;2023-08-31T16:52:01;0;0;
45871;PMS5003;32333;55.844;-3.210;2023-08-31T16:54:31;0;0;
45871;PMS5003;32333;55.844;-3.210;2023-08-31T16:56:58;0;0;
45871;PMS5003;32333;55.844;-3.210;2023-08-31T16:59:26;0;0;
45871;PMS5003;32333;55.844;-3.210;2023-08-31T17:01:55;0;0;
45871;PMS5003;32333;55.844;-3.210;2023-08-31T17:04:22;0;0;
45871;PMS5003;32333;55.844;-3.210;2023-08-31T17:06:52;0;0;
45871;PMS5003;32333;55.844;-3.210;2023-08-31T17:09:20;0;0;
45871;PMS5003;32333;55.844;-3.210;2023-08-31T17:11:48;0;0;
45871;PMS5003;32333;55.844;-3.210;2023-08-31T17:14:35;0;0;
45871;PMS5003;32333;55.844;-3.210;2023-08-31T17:17:02;0;0;
45871;PMS5003;32333;55.844;-3.210;2023-08-31T17:19:30;1;0;